Time;durP1;ratioP1;P1;durP2;ratioP2;P2;SDS_P1;SDS_P2;PMS_P1;PMS_P2;Temp;Humidity;BMP_temperature;BMP_pressure;BME280_temperature;BME280_humidity;BME280_pressure;Samples;Min_cycle;Max_cycle;Signal;HPM_P1;HPM_P2
2022/07/28 00:09:32;;;;;;;2.27;1.20;;;19.70;55.60;;;;;;21161101;28;20215;-69
2022/07/28 00:19:35;;;;;;;1.93;1.43;;;19.60;55.90;;;;;;21174252;28;20240;-67
2022/07/28 00:29:36;;;;;;;6.80;1.90;;;19.40;56.10;;;;;;21176044;28;20206;-67
2022/07/28 00:39:51;;;;;;;2.70;1.30;;;19.30;56.50;;;;;;21174613;28;20242;-67
2022/07/28 00:49:53;;;;;;;7.30;1.63;;;19.20;56.60;;;;;;21174372;28;20285;-67
2022/07/28 00:59:55;;;;;;;8.00;1.20;;;19.10;56.40;;;;;;21173632;28;20226;-68
2022/07/28 01:10:08;;;;;;;3.20;1.30;;;19.10;56.10;;;;;;21172610;28;20198;-66
2022/07/28 01:20:27;;;;;;;1.67;1.27;;;18.80;56.00;;;;;;21171866;28;20727;-65
2022/07/28 01:30:42;;;;;;;1.40;1.30;;;18.80;56.70;;;;;;21170341;28;20209;-67
2022/07/28 01:40:45;;;;;;;2.97;1.50;;;18.70;57.20;;;;;;21151731;28;20251;-67
2022/07/28 01:50:54;;;;;;;5.17;1.67;;;18.60;57.60;;;;;;21169350;28;20576;-65
2022/07/28 02:00:57;;;;;;;2.17;1.30;;;18.40;58.00;;;;;;21168676;28;20235;-65
2022/07/28 02:21:23;;;;;;;2.97;1.50;;;18.20;58.00;;;;;;21166766;28;20238;-68
2022/07/28 02:31:28;;;;;;;6.50;3.67;;;18.20;58.50;;;;;;21166389;28;20296;-66
2022/07/28 02:41:35;;;;;;;7.37;1.67;;;18.10;58.10;;;;;;21164872;28;20777;-65
2022/07/28 02:51:41;;;;;;;5.13;1.63;;;18.00;59.00;;;;;;21164822;28;20209;-66
2022/07/28 03:01:43;;;;;;;5.70;1.63;;;17.90;59.20;;;;;;21163768;28;20251;-66
2022/07/28 03:11:52;;;;;;;2.20;1.30;;;17.90;59.40;;;;;;21163489;28;20280;-66
2022/07/28 03:21:53;;;;;;;5.87;1.47;;;17.90;59.60;;;;;;21162729;28;20250;-66
2022/07/28 03:31:57;;;;;;;2.87;1.70;;;17.80;59.80;;;;;;21162438;28;20201;-68
2022/07/28 03:42:01;;;;;;;6.80;1.40;;;17.80;58.80;;;;;;21162467;28;20705;-66
2022/07/28 03:53:55;;;;;;;4.63;1.60;;;17.80;58.40;;;;;;21028662;28;20568;-69
2022/07/28 04:03:56;;;;;;;2.33;1.30;;;17.80;58.60;;;;;;21030882;28;20656;-69
2022/07/28 04:13:58;;;;;;;6.03;1.30;;;17.70;59.10;;;;;;21035033;28;20213;-67
2022/07/28 04:24:00;;;;;;;4.27;1.50;;;17.70;58.90;;;;;;20993573;28;20272;-69
2022/07/28 04:34:02;;;;;;;10.00;1.50;;;17.70;59.40;;;;;;20981886;28;20210;-67
2022/07/28 04:44:04;;;;;;;5.83;1.60;;;17.90;58.90;;;;;;20980478;28;20204;-68
2022/07/28 04:54:06;;;;;;;21.03;1.90;;;17.80;58.90;;;;;;20979491;28;20217;-68
2022/07/28 05:04:07;;;;;;;15.43;2.47;;;17.80;58.80;;;;;;20929186;28;20579;-65
2022/07/28 05:14:09;;;;;;;22.70;2.03;;;17.90;59.30;;;;;;20922895;28;20209;-66
2022/07/28 05:24:13;;;;;;;11.40;2.57;;;18.20;58.60;;;;;;20921955;28;20213;-66
2022/07/28 05:34:16;;;;;;;7.17;1.60;;;18.40;58.50;;;;;;20922321;28;20690;-67
2022/07/28 05:44:18;;;;;;;7.57;1.70;;;18.50;58.90;;;;;;20921612;28;20272;-69
2022/07/28 05:54:20;;;;;;;5.63;1.47;;;18.80;58.70;;;;;;20920491;28;20296;-71
2022/07/28 06:04:21;;;;;;;7.77;1.60;;;19.10;58.20;;;;;;20919401;28;20293;-69
2022/07/28 06:14:29;;;;;;;5.17;1.90;;;19.40;57.90;;;;;;20917385;28;20227;-70
2022/07/28 06:24:30;;;;;;;3.20;1.80;;;19.50;57.60;;;;;;20916530;28;20235;-70
2022/07/28 06:34:32;;;;;;;4.40;1.50;;;19.70;57.30;;;;;;20916690;28;20211;-70
2022/07/28 06:44:34;;;;;;;5.60;2.00;;;19.80;57.30;;;;;;20916007;28;20234;-70
2022/07/28 06:54:56;;;;;;;5.37;1.53;;;20.10;57.10;;;;;;20915803;28;20215;-70
2022/07/28 07:04:59;;;;;;;3.97;1.83;;;20.40;57.00;;;;;;20913599;28;20239;-69
2022/07/28 07:15:03;;;;;;;3.33;2.20;;;20.40;57.00;;;;;;20913470;28;20206;-71
2022/07/28 07:25:09;;;;;;;5.50;2.00;;;20.50;57.10;;;;;;20913564;28;20235;-70
2022/07/28 07:35:11;;;;;;;3.73;1.67;;;20.70;57.10;;;;;;20913358;28;20200;-69
2022/07/28 07:45:13;;;;;;;5.47;1.73;;;20.90;57.10;;;;;;20911698;28;20255;-70
2022/07/28 07:55:16;;;;;;;6.53;2.10;;;21.10;57.10;;;;;;20925436;28;20258;-70
2022/07/28 08:05:17;;;;;;;6.33;2.13;;;21.40;56.80;;;;;;20945220;28;20698;-69
2022/07/28 08:15:20;;;;;;;7.50;2.23;;;21.30;57.00;;;;;;20911835;28;20261;-70
2022/07/28 08:25:23;;;;;;;6.50;1.90;;;21.60;56.90;;;;;;20910507;28;20318;-69
2022/07/28 08:35:25;;;;;;;4.97;1.93;;;22.00;56.40;;;;;;20917289;28;20664;-69
2022/07/28 08:45:40;;;;;;;3.57;1.70;;;22.30;56.20;;;;;;20924447;28;20593;-71
2022/07/28 08:55:43;;;;;;;4.23;1.93;;;22.50;55.70;;;;;;20922746;28;20208;-68
2022/07/28 09:05:46;;;;;;;8.30;2.30;;;22.70;55.40;;;;;;20923053;28;20231;-70
2022/07/28 09:15:48;;;;;;;10.87;2.60;;;22.90;55.00;;;;;;20923138;28;20671;-70
2022/07/28 09:25:50;;;;;;;5.87;2.10;;;23.20;54.60;;;;;;20922217;28;20234;-70
2022/07/28 09:35:55;;;;;;;6.53;2.20;;;23.40;54.00;;;;;;20921376;28;20652;-71
2022/07/28 09:46:10;;;;;;;5.40;1.70;;;23.70;53.50;;;;;;20919439;28;20324;-70
2022/07/28 09:56:12;;;;;;;5.27;2.03;;;24.00;53.00;;;;;;20919669;28;20203;-70
2022/07/28 10:06:15;;;;;;;3.23;1.87;;;24.30;51.70;;;;;;20918998;28;20232;-70
2022/07/28 10:16:18;;;;;;;1.50;1.40;;;24.60;50.80;;;;;;20918422;28;20211;-70
2022/07/28 10:26:27;;;;;;;2.47;1.60;;;24.90;49.90;;;;;;20917384;28;20232;-70
2022/07/28 10:36:31;;;;;;;5.07;1.90;;;25.10;49.10;;;;;;20916457;28;20690;-70
2022/07/28 10:46:33;;;;;;;3.30;1.70;;;25.20;48.80;;;;;;20916118;28;20247;-69
2022/07/28 10:56:45;;;;;;;3.53;1.73;;;25.30;48.30;;;;;;20912943;28;20204;-70
2022/07/28 11:06:48;;;;;;;4.07;1.80;;;25.50;47.90;;;;;;20913999;28;20235;-70
2022/07/28 11:17:12;;;;;;;4.50;1.93;;;25.70;47.50;;;;;;20912613;28;20204;-69
2022/07/28 11:27:13;;;;;;;3.03;1.53;;;25.80;46.90;;;;;;20912122;28;20227;-70
2022/07/28 11:37:15;;;;;;;3.50;1.87;;;26.00;46.70;;;;;;20911761;28;20577;-70
2022/07/28 11:47:19;;;;;;;6.70;1.67;;;26.20;46.40;;;;;;20911094;28;20330;-70
2022/07/28 11:57:23;;;;;;;6.20;1.93;;;26.20;46.20;;;;;;20911850;28;20208;-70
2022/07/28 12:07:32;;;;;;;4.17;1.80;;;26.20;46.00;;;;;;20912626;28;20236;-68
2022/07/28 12:17:34;;;;;;;3.07;1.80;;;26.20;45.90;;;;;;20886884;28;20215;-66
2022/07/28 12:27:36;;;;;;;6.33;1.90;;;26.50;45.50;;;;;;20921320;28;20262;-71
2022/07/28 12:37:39;;;;;;;3.33;1.90;;;26.80;45.10;;;;;;20927707;28;20215;-70
2022/07/28 12:47:40;;;;;;;6.57;1.83;;;27.00;44.50;;;;;;20926595;28;20261;-71
2022/07/28 12:57:46;;;;;;;3.73;1.70;;;26.80;44.40;;;;;;20924555;28;20686;-70
2022/07/28 13:07:58;;;;;;;9.10;2.30;;;26.90;44.50;;;;;;20945267;28;20232;-71
2022/07/28 13:18:03;;;;;;;2.83;2.20;;;26.90;44.40;;;;;;20922937;28;20672;-72
2022/07/28 13:28:24;;;;;;;6.55;2.88;;;26.90;44.40;;;;;;20922063;28;20674;-70
2022/07/28 13:38:26;;;;;;;4.90;1.90;;;27.00;44.30;;;;;;20920340;28;20226;-70
2022/07/28 13:48:27;;;;;;;8.23;2.20;;;27.30;43.90;;;;;;20919647;28;20238;-71
2022/07/28 13:58:30;;;;;;;5.87;2.03;;;27.40;43.70;;;;;;20919997;28;20212;-70
2022/07/28 14:08:32;;;;;;;5.57;1.70;;;27.60;43.40;;;;;;20918833;28;20244;-70
2022/07/28 14:18:34;;;;;;;2.33;1.73;;;27.50;43.30;;;;;;20918231;28;20212;-71
2022/07/28 14:28:35;;;;;;;3.63;1.90;;;27.60;43.10;;;;;;20916837;28;20695;-71
2022/07/28 14:38:37;;;;;;;4.37;1.87;;;27.70;43.00;;;;;;20916198;28;20204;-71
2022/07/28 14:48:55;;;;;;;3.53;1.92;;;27.60;42.90;;;;;;20915288;28;20236;-70
2022/07/28 14:58:57;;;;;;;2.60;1.70;;;27.70;42.80;;;;;;20915568;28;20207;-71
2022/07/28 15:09:01;;;;;;;6.77;2.00;;;27.80;42.50;;;;;;20914355;28;20235;-70
2022/07/28 15:19:03;;;;;;;6.37;2.20;;;27.90;43.20;;;;;;20914228;28;20295;-71
2022/07/28 15:29:05;;;;;;;3.63;1.77;;;27.80;42.50;;;;;;20913673;28;20633;-71
2022/07/28 15:39:12;;;;;;;1.70;1.60;;;27.70;42.40;;;;;;20913201;28;20208;-71
2022/07/28 15:49:14;;;;;;;5.40;2.00;;;27.90;42.40;;;;;;20912597;28;20713;-71
2022/07/28 15:59:16;;;;;;;9.77;2.20;;;28.00;42.10;;;;;;20913137;28;20299;-70
2022/07/28 16:09:18;;;;;;;5.97;2.50;;;28.00;41.90;;;;;;20911942;28;20242;-71
2022/07/28 16:19:20;;;;;;;3.50;1.73;;;27.80;41.90;;;;;;20911126;28;20207;-71
2022/07/28 16:29:43;;;;;;;5.43;2.03;;;27.60;42.20;;;;;;20910468;28;20234;-71
2022/07/28 16:39:46;;;;;;;4.97;2.30;;;27.40;42.50;;;;;;20910926;28;20235;-71
2022/07/28 16:49:50;;;;;;;7.80;2.40;;;27.20;42.70;;;;;;20910024;28;20248;-70
2022/07/28 16:59:52;;;;;;;3.77;2.20;;;26.90;42.90;;;;;;20921800;28;20208;-70
2022/07/28 17:09:54;;;;;;;2.10;1.73;;;26.90;43.00;;;;;;20924336;28;20242;-71
2022/07/28 17:19:56;;;;;;;3.47;2.80;;;26.80;43.10;;;;;;20928919;28;20211;-72
2022/07/28 17:29:58;;;;;;;4.63;3.67;;;26.70;43.80;;;;;;20934117;28;20695;-77
2022/07/28 17:39:59;;;;;;;7.57;2.40;;;26.40;44.40;;;;;;20922107;28;20208;-74
2022/07/28 17:50:07;;;;;;;6.17;2.77;;;26.30;44.60;;;;;;20920943;28;20255;-67
2022/07/28 18:00:09;;;;;;;3.50;2.53;;;26.30;45.00;;;;;;20920052;28;20215;-68
2022/07/28 18:10:11;;;;;;;5.23;2.23;;;26.20;45.10;;;;;;20919866;28;20318;-67
2022/07/28 18:20:13;;;;;;;5.30;2.10;;;26.10;45.30;;;;;;20918701;28;20303;-70
2022/07/28 18:30:15;;;;;;;3.93;2.30;;;25.90;45.30;;;;;;20953408;28;20231;-71
2022/07/28 18:40:20;;;;;;;5.00;2.20;;;25.80;45.20;;;;;;20927588;28;20209;-70
2022/07/28 18:50:22;;;;;;;6.88;2.20;;;25.70;45.40;;;;;;20995938;28;20489;-69
2022/07/28 19:00:32;;;;;;;6.23;2.33;;;25.70;45.70;;;;;;20939874;28;20203;-72
2022/07/28 19:10:35;;;;;;;6.97;3.03;;;25.50;45.90;;;;;;20983488;28;20224;-72
2022/07/28 19:20:39;;;;;;;4.90;2.43;;;25.30;46.30;;;;;;20916352;28;20630;-72
2022/07/28 19:30:43;;;;;;;11.17;2.70;;;25.10;46.60;;;;;;20917556;28;20711;-72
2022/07/28 19:40:45;;;;;;;6.33;2.37;;;25.00;47.10;;;;;;20935926;28;20239;-72
2022/07/28 19:50:48;;;;;;;6.27;2.50;;;24.90;47.20;;;;;;20971346;28;20592;-72
2022/07/28 20:00:52;;;;;;;6.77;2.40;;;24.70;47.60;;;;;;20984388;28;20290;-73
2022/07/28 20:10:57;;;;;;;5.30;2.80;;;24.50;48.20;;;;;;20995513;28;20602;-73
2022/07/28 20:20:59;;;;;;;6.33;2.93;;;24.30;48.80;;;;;;20994758;28;20208;-73
2022/07/28 20:31:00;;;;;;;9.17;2.73;;;24.20;49.30;;;;;;21000746;28;20245;-73
2022/07/28 20:41:03;;;;;;;5.03;2.70;;;23.90;49.60;;;;;;21009854;28;20214;-73
2022/07/28 20:51:07;;;;;;;9.20;2.80;;;23.80;50.00;;;;;;20957924;28;20326;-72
2022/07/28 21:01:11;;;;;;;4.60;2.40;;;23.70;50.30;;;;;;20873907;28;20830;-72
2022/07/28 21:11:13;;;;;;;9.23;2.70;;;23.60;51.00;;;;;;20921784;28;20236;-72
2022/07/28 21:21:15;;;;;;;4.00;2.50;;;23.50;51.30;;;;;;20936086;28;20287;-73
2022/07/28 21:31:17;;;;;;;4.10;2.77;;;23.40;51.20;;;;;;20957385;28;20238;-73
2022/07/28 21:41:24;;;;;;;7.83;2.37;;;23.40;51.30;;;;;;20983718;28;20200;-72
2022/07/28 21:51:28;;;;;;;3.67;2.60;;;23.30;51.40;;;;;;20959366;28;20240;-72
2022/07/28 22:01:29;;;;;;;3.57;2.30;;;23.30;51.30;;;;;;20982146;28;20208;-73
2022/07/28 22:11:31;;;;;;;3.53;2.50;;;23.30;51.20;;;;;;20982811;28;20658;-76
2022/07/28 22:21:33;;;;;;;22.87;3.20;;;23.20;50.90;;;;;;20933338;28;20246;-73
2022/07/28 22:31:35;;;;;;;3.10;2.30;;;23.20;50.60;;;;;;20969822;28;20232;-72
2022/07/28 22:41:37;;;;;;;6.47;2.50;;;23.10;50.30;;;;;;20975322;28;20207;-73
2022/07/28 22:51:39;;;;;;;4.33;2.40;;;23.10;50.30;;;;;;20919228;28;20699;-73
2022/07/28 23:01:48;;;;;;;4.17;2.00;;;23.00;50.00;;;;;;20915851;28;20224;-72
2022/07/28 23:11:50;;;;;;;7.97;2.37;;;22.90;49.80;;;;;;20915583;28;20227;-73
2022/07/28 23:21:56;;;;;;;4.57;2.47;;;22.90;49.60;;;;;;20914477;28;20204;-73
2022/07/28 23:31:58;;;;;;;5.77;2.50;;;22.80;49.40;;;;;;20913694;28;20232;-73
2022/07/28 23:42:01;;;;;;;5.10;2.80;;;22.80;49.30;;;;;;20913575;28;20208;-72
2022/07/28 23:52:02;;;;;;;7.53;2.70;;;22.80;49.10;;;;;;20912328;28;20250;-72
